sensor_id;sensor_type;location;lat;lon;timestamp;P1;durP1;ratioP1;P2;durP2;ratioP2
28714;SDS011;15886;49.170;14.572;2024-03-23T00:53:44;70.47;;;29.27;;
28714;SDS011;15886;49.170;14.572;2024-03-23T00:56:11;58.55;;;22.88;;
28714;SDS011;15886;49.170;14.572;2024-03-23T00:58:38;42.53;;;17.30;;
28714;SDS011;15886;49.170;14.572;2024-03-23T01:01:06;41.33;;;16.70;;
28714;SDS011;15886;49.170;14.572;2024-03-23T01:03:33;60.80;;;26.20;;
28714;SDS011;15886;49.170;14.572;2024-03-23T01:06:00;69.63;;;27.08;;
28714;SDS011;15886;49.170;14.572;2024-03-23T01:08:27;59.47;;;25.90;;
28714;SDS011;15886;49.170;14.572;2024-03-23T01:10:55;48.85;;;22.75;;
28714;SDS011;15886;49.170;14.572;2024-03-23T01:13:22;34.80;;;17.05;;
28714;SDS011;15886;49.170;14.572;2024-03-23T01:15:50;33.25;;;15.00;;
28714;SDS011;15886;49.170;14.572;2024-03-23T01:18:20;40.47;;;17.38;;
28714;SDS011;15886;49.170;14.572;2024-03-23T01:20:47;33.75;;;16.10;;
28714;SDS011;15886;49.170;14.572;2024-03-23T01:23:15;28.27;;;14.70;;
28714;SDS011;15886;49.170;14.572;2024-03-23T01:25:42;27.77;;;13.90;;
28714;SDS011;15886;49.170;14.572;2024-03-23T01:28:09;27.55;;;15.25;;
28714;SDS011;15886;49.170;14.572;2024-03-23T01:30:36;25.10;;;13.73;;
28714;SDS011;15886;49.170;14.572;2024-03-23T01:33:03;25.65;;;12.98;;
28714;SDS011;15886;49.170;14.572;2024-03-23T01:35:30;26.67;;;12.70;;
28714;SDS011;15886;49.170;14.572;2024-03-23T01:37:57;22.00;;;13.15;;
28714;SDS011;15886;49.170;14.572;2024-03-23T01:40:24;26.90;;;13.27;;
28714;SDS011;15886;49.170;14.572;2024-03-23T01:42:57;27.98;;;12.60;;
28714;SDS011;15886;49.170;14.572;2024-03-23T01:45:24;21.65;;;11.90;;
28714;SDS011;15886;49.170;14.572;2024-03-23T01:47:51;23.55;;;11.32;;
28714;SDS011;15886;49.170;14.572;2024-03-23T01:50:19;18.83;;;11.80;;
28714;SDS011;15886;49.170;14.572;2024-03-23T01:52:47;23.35;;;11.93;;
28714;SDS011;15886;49.170;14.572;2024-03-23T01:55:15;26.52;;;12.30;;
28714;SDS011;15886;49.170;14.572;2024-03-23T01:57:42;25.60;;;12.43;;
28714;SDS011;15886;49.170;14.572;2024-03-23T02:00:09;24.90;;;12.48;;
28714;SDS011;15886;49.170;14.572;2024-03-23T02:02:44;34.35;;;14.05;;
28714;SDS011;15886;49.170;14.572;2024-03-23T02:05:12;21.10;;;11.73;;
28714;SDS011;15886;49.170;14.572;2024-03-23T02:07:39;24.88;;;11.75;;
28714;SDS011;15886;49.170;14.572;2024-03-23T02:10:07;27.10;;;12.77;;
28714;SDS011;15886;49.170;14.572;2024-03-23T02:12:35;20.83;;;10.45;;
28714;SDS011;15886;49.170;14.572;2024-03-23T02:15:03;22.48;;;12.05;;
28714;SDS011;15886;49.170;14.572;2024-03-23T02:17:31;27.25;;;13.75;;
28714;SDS011;15886;49.170;14.572;2024-03-23T02:19:59;25.38;;;12.95;;
28714;SDS011;15886;49.170;14.572;2024-03-23T02:22:36;22.60;;;11.07;;
28714;SDS011;15886;49.170;14.572;2024-03-23T02:25:06;22.95;;;11.90;;
28714;SDS011;15886;49.170;14.572;2024-03-23T02:27:37;23.00;;;11.15;;
28714;SDS011;15886;49.170;14.572;2024-03-23T02:30:06;23.02;;;11.80;;
28714;SDS011;15886;49.170;14.572;2024-03-23T02:32:33;23.42;;;12.70;;
28714;SDS011;15886;49.170;14.572;2024-03-23T02:35:00;28.02;;;12.25;;
28714;SDS011;15886;49.170;14.572;2024-03-23T02:37:27;20.55;;;12.18;;
28714;SDS011;15886;49.170;14.572;2024-03-23T02:39:55;20.33;;;10.77;;
28714;SDS011;15886;49.170;14.572;2024-03-23T02:42:22;18.50;;;9.95;;
28714;SDS011;15886;49.170;14.572;2024-03-23T02:44:49;16.33;;;8.45;;
28714;SDS011;15886;49.170;14.572;2024-03-23T02:47:16;17.85;;;9.60;;
28714;SDS011;15886;49.170;14.572;2024-03-23T02:49:43;14.40;;;8.57;;
28714;SDS011;15886;49.170;14.572;2024-03-23T02:52:10;14.40;;;8.05;;
28714;SDS011;15886;49.170;14.572;2024-03-23T02:54:37;16.67;;;9.55;;
28714;SDS011;15886;49.170;14.572;2024-03-23T02:57:05;23.95;;;11.95;;
28714;SDS011;15886;49.170;14.572;2024-03-23T02:59:32;25.38;;;13.32;;
28714;SDS011;15886;49.170;14.572;2024-03-23T03:01:59;19.92;;;10.98;;
28714;SDS011;15886;49.170;14.572;2024-03-23T03:04:27;22.65;;;13.57;;
28714;SDS011;15886;49.170;14.572;2024-03-23T03:06:54;28.60;;;15.52;;
28714;SDS011;15886;49.170;14.572;2024-03-23T03:09:21;25.60;;;14.77;;
28714;SDS011;15886;49.170;14.572;2024-03-23T03:11:48;24.98;;;12.57;;
28714;SDS011;15886;49.170;14.572;2024-03-23T03:14:15;18.25;;;10.40;;
28714;SDS011;15886;49.170;14.572;2024-03-23T03:16:42;18.23;;;8.85;;
28714;SDS011;15886;49.170;14.572;2024-03-23T03:19:09;14.45;;;8.20;;
28714;SDS011;15886;49.170;14.572;2024-03-23T03:21:36;13.98;;;8.27;;
28714;SDS011;15886;49.170;14.572;2024-03-23T03:24:05;13.90;;;7.70;;
28714;SDS011;15886;49.170;14.572;2024-03-23T03:26:33;12.88;;;8.35;;
28714;SDS011;15886;49.170;14.572;2024-03-23T03:29:00;18.75;;;9.10;;
28714;SDS011;15886;49.170;14.572;2024-03-23T03:31:27;18.33;;;8.85;;
28714;SDS011;15886;49.170;14.572;2024-03-23T03:33:54;19.75;;;11.80;;
28714;SDS011;15886;49.170;14.572;2024-03-23T03:36:21;23.42;;;12.57;;
28714;SDS011;15886;49.170;14.572;2024-03-23T03:38:48;21.58;;;12.10;;
28714;SDS011;15886;49.170;14.572;2024-03-23T03:41:15;16.88;;;9.68;;
28714;SDS011;15886;49.170;14.572;2024-03-23T03:43:42;18.25;;;10.23;;
28714;SDS011;15886;49.170;14.572;2024-03-23T03:46:09;14.27;;;9.13;;
28714;SDS011;15886;49.170;14.572;2024-03-23T03:48:37;16.25;;;9.10;;
28714;SDS011;15886;49.170;14.572;2024-03-23T03:51:04;16.88;;;9.13;;
28714;SDS011;15886;49.170;14.572;2024-03-23T03:53:31;18.15;;;8.88;;
28714;SDS011;15886;49.170;14.572;2024-03-23T03:56:01;16.15;;;8.23;;
28714;SDS011;15886;49.170;14.572;2024-03-23T03:58:29;13.25;;;8.35;;
28714;SDS011;15886;49.170;14.572;2024-03-23T04:00:56;17.65;;;8.55;;
28714;SDS011;15886;49.170;14.572;2024-03-23T04:03:23;14.43;;;8.23;;
28714;SDS011;15886;49.170;14.572;2024-03-23T04:05:52;17.58;;;8.93;;
28714;SDS011;15886;49.170;14.572;2024-03-23T04:08:20;16.08;;;9.45;;
28714;SDS011;15886;49.170;14.572;2024-03-23T04:10:47;14.18;;;8.93;;
28714;SDS011;15886;49.170;14.572;2024-03-23T04:13:14;19.17;;;9.80;;
28714;SDS011;15886;49.170;14.572;2024-03-23T04:15:42;19.05;;;9.48;;
28714;SDS011;15886;49.170;14.572;2024-03-23T04:18:09;14.55;;;8.80;;
28714;SDS011;15886;49.170;14.572;2024-03-23T04:20:36;14.55;;;8.48;;
28714;SDS011;15886;49.170;14.572;2024-03-23T04:23:03;16.52;;;9.10;;
28714;SDS011;15886;49.170;14.572;2024-03-23T04:25:31;18.08;;;9.02;;
28714;SDS011;15886;49.170;14.572;2024-03-23T04:27:58;16.08;;;9.60;;
28714;SDS011;15886;49.170;14.572;2024-03-23T04:30:25;16.33;;;8.57;;
28714;SDS011;15886;49.170;14.572;2024-03-23T04:32:54;17.55;;;8.55;;
28714;SDS011;15886;49.170;14.572;2024-03-23T04:35:22;17.08;;;8.98;;
28714;SDS011;15886;49.170;14.572;2024-03-23T04:37:51;18.50;;;10.10;;
28714;SDS011;15886;49.170;14.572;2024-03-23T04:40:25;21.85;;;10.63;;
28714;SDS011;15886;49.170;14.572;2024-03-23T04:42:52;18.60;;;9.80;;
28714;SDS011;15886;49.170;14.572;2024-03-23T04:45:19;17.85;;;9.77;;
28714;SDS011;15886;49.170;14.572;2024-03-23T04:47:48;18.17;;;9.32;;
28714;SDS011;15886;49.170;14.572;2024-03-23T04:50:15;23.27;;;9.90;;
28714;SDS011;15886;49.170;14.572;2024-03-23T04:52:42;18.05;;;10.32;;
28714;SDS011;15886;49.170;14.572;2024-03-23T04:55:09;15.73;;;9.00;;
28714;SDS011;15886;49.170;14.572;2024-03-23T04:57:38;25.08;;;10.40;;
28714;SDS011;15886;49.170;14.572;2024-03-23T05:00:05;21.73;;;10.25;;
28714;SDS011;15886;49.170;14.572;2024-03-23T05:02:44;23.98;;;9.57;;
28714;SDS011;15886;49.170;14.572;2024-03-23T05:05:12;27.75;;;10.77;;
28714;SDS011;15886;49.170;14.572;2024-03-23T05:07:40;19.00;;;10.60;;
28714;SDS011;15886;49.170;14.572;2024-03-23T05:10:09;21.48;;;10.98;;
28714;SDS011;15886;49.170;14.572;2024-03-23T05:12:37;18.85;;;9.95;;
28714;SDS011;15886;49.170;14.572;2024-03-23T05:15:04;19.30;;;9.75;;
28714;SDS011;15886;49.170;14.572;2024-03-23T05:17:32;18.10;;;10.65;;
28714;SDS011;15886;49.170;14.572;2024-03-23T05:19:59;19.27;;;11.32;;
28714;SDS011;15886;49.170;14.572;2024-03-23T05:22:26;21.88;;;10.75;;
28714;SDS011;15886;49.170;14.572;2024-03-23T05:24:53;24.33;;;10.32;;
28714;SDS011;15886;49.170;14.572;2024-03-23T05:27:20;20.02;;;9.85;;
28714;SDS011;15886;49.170;14.572;2024-03-23T05:29:47;16.75;;;10.00;;
28714;SDS011;15886;49.170;14.572;2024-03-23T05:32:14;17.38;;;9.57;;
28714;SDS011;15886;49.170;14.572;2024-03-23T05:34:41;18.92;;;9.10;;
28714;SDS011;15886;49.170;14.572;2024-03-23T05:37:09;17.08;;;9.20;;
28714;SDS011;15886;49.170;14.572;2024-03-23T05:39:36;19.83;;;9.93;;
28714;SDS011;15886;49.170;14.572;2024-03-23T05:42:04;17.90;;;8.90;;
28714;SDS011;15886;49.170;14.572;2024-03-23T05:44:31;17.65;;;9.18;;
28714;SDS011;15886;49.170;14.572;2024-03-23T05:46:58;16.52;;;8.80;;
28714;SDS011;15886;49.170;14.572;2024-03-23T05:49:25;13.75;;;8.55;;
28714;SDS011;15886;49.170;14.572;2024-03-23T05:51:53;15.18;;;9.20;;
28714;SDS011;15886;49.170;14.572;2024-03-23T05:54:21;16.90;;;9.15;;
28714;SDS011;15886;49.170;14.572;2024-03-23T05:56:48;17.23;;;8.93;;
28714;SDS011;15886;49.170;14.572;2024-03-23T05:59:15;21.73;;;9.93;;
28714;SDS011;15886;49.170;14.572;2024-03-23T06:01:42;17.50;;;8.90;;
28714;SDS011;15886;49.170;14.572;2024-03-23T06:04:12;16.67;;;9.02;;
28714;SDS011;15886;49.170;14.572;2024-03-23T06:06:42;17.90;;;10.13;;
28714;SDS011;15886;49.170;14.572;2024-03-23T06:09:09;18.02;;;9.98;;
28714;SDS011;15886;49.170;14.572;2024-03-23T06:11:38;19.00;;;9.55;;
28714;SDS011;15886;49.170;14.572;2024-03-23T06:14:05;14.93;;;8.13;;
28714;SDS011;15886;49.170;14.572;2024-03-23T06:16:33;14.20;;;8.63;;
28714;SDS011;15886;49.170;14.572;2024-03-23T06:19:00;11.27;;;6.75;;
28714;SDS011;15886;49.170;14.572;2024-03-23T06:21:29;13.50;;;7.45;;
28714;SDS011;15886;49.170;14.572;2024-03-23T06:23:56;12.85;;;6.88;;
28714;SDS011;15886;49.170;14.572;2024-03-23T06:26:24;12.90;;;7.85;;
28714;SDS011;15886;49.170;14.572;2024-03-23T06:28:51;17.00;;;8.00;;
28714;SDS011;15886;49.170;14.572;2024-03-23T06:31:18;12.20;;;7.30;;
28714;SDS011;15886;49.170;14.572;2024-03-23T06:33:45;12.77;;;7.53;;
28714;SDS011;15886;49.170;14.572;2024-03-23T06:36:12;13.07;;;8.10;;
28714;SDS011;15886;49.170;14.572;2024-03-23T06:38:40;15.55;;;8.35;;
28714;SDS011;15886;49.170;14.572;2024-03-23T06:41:07;10.52;;;7.50;;
28714;SDS011;15886;49.170;14.572;2024-03-23T06:43:37;15.43;;;7.70;;
28714;SDS011;15886;49.170;14.572;2024-03-23T06:46:05;12.85;;;7.30;;
28714;SDS011;15886;49.170;14.572;2024-03-23T06:48:32;17.30;;;8.20;;
28714;SDS011;15886;49.170;14.572;2024-03-23T06:50:59;15.63;;;8.13;;
28714;SDS011;15886;49.170;14.572;2024-03-23T06:53:26;13.43;;;7.70;;
28714;SDS011;15886;49.170;14.572;2024-03-23T06:55:53;14.45;;;8.15;;
28714;SDS011;15886;49.170;14.572;2024-03-23T06:58:23;17.23;;;8.40;;
28714;SDS011;15886;49.170;14.572;2024-03-23T07:00:51;12.85;;;7.50;;
28714;SDS011;15886;49.170;14.572;2024-03-23T07:03:18;14.23;;;7.10;;
28714;SDS011;15886;49.170;14.572;2024-03-23T07:05:45;14.40;;;7.75;;
28714;SDS011;15886;49.170;14.572;2024-03-23T07:08:12;13.73;;;7.63;;
28714;SDS011;15886;49.170;14.572;2024-03-23T07:10:44;14.90;;;8.30;;
28714;SDS011;15886;49.170;14.572;2024-03-23T07:13:12;13.43;;;7.43;;
28714;SDS011;15886;49.170;14.572;2024-03-23T07:15:39;12.57;;;6.90;;
28714;SDS011;15886;49.170;14.572;2024-03-23T07:18:07;13.23;;;7.22;;
28714;SDS011;15886;49.170;14.572;2024-03-23T07:20:34;12.80;;;6.85;;
28714;SDS011;15886;49.170;14.572;2024-03-23T07:23:01;14.10;;;7.03;;
28714;SDS011;15886;49.170;14.572;2024-03-23T07:25:28;11.77;;;7.25;;
28714;SDS011;15886;49.170;14.572;2024-03-23T07:27:55;14.23;;;7.07;;
28714;SDS011;15886;49.170;14.572;2024-03-23T07:30:23;11.63;;;6.70;;
28714;SDS011;15886;49.170;14.572;2024-03-23T07:32:50;13.07;;;6.03;;
28714;SDS011;15886;49.170;14.572;2024-03-23T07:35:17;11.75;;;6.47;;
28714;SDS011;15886;49.170;14.572;2024-03-23T07:37:44;9.70;;;5.95;;
28714;SDS011;15886;49.170;14.572;2024-03-23T07:40:11;9.18;;;5.88;;
28714;SDS011;15886;49.170;14.572;2024-03-23T07:42:38;11.07;;;5.38;;
28714;SDS011;15886;49.170;14.572;2024-03-23T07:45:05;12.55;;;5.75;;
28714;SDS011;15886;49.170;14.572;2024-03-23T07:47:32;8.70;;;5.30;;
28714;SDS011;15886;49.170;14.572;2024-03-23T07:49:59;7.50;;;4.60;;
28714;SDS011;15886;49.170;14.572;2024-03-23T07:52:30;9.30;;;5.07;;
28714;SDS011;15886;49.170;14.572;2024-03-23T07:54:57;7.80;;;3.95;;
28714;SDS011;15886;49.170;14.572;2024-03-23T07:57:24;5.05;;;3.45;;
28714;SDS011;15886;49.170;14.572;2024-03-23T07:59:51;13.63;;;3.58;;
28714;SDS011;15886;49.170;14.572;2024-03-23T08:02:18;7.35;;;3.80;;
28714;SDS011;15886;49.170;14.572;2024-03-23T08:04:45;5.00;;;3.42;;
28714;SDS011;15886;49.170;14.572;2024-03-23T08:07:12;3.72;;;2.90;;
28714;SDS011;15886;49.170;14.572;2024-03-23T08:09:39;7.60;;;3.67;;
28714;SDS011;15886;49.170;14.572;2024-03-23T08:12:06;6.47;;;3.22;;
28714;SDS011;15886;49.170;14.572;2024-03-23T08:14:34;4.78;;;2.95;;
28714;SDS011;15886;49.170;14.572;2024-03-23T08:17:00;5.68;;;3.13;;
28714;SDS011;15886;49.170;14.572;2024-03-23T08:19:28;7.50;;;3.45;;
28714;SDS011;15886;49.170;14.572;2024-03-23T08:21:54;5.07;;;3.17;;
28714;SDS011;15886;49.170;14.572;2024-03-23T08:24:22;6.22;;;3.25;;
28714;SDS011;15886;49.170;14.572;2024-03-23T08:26:49;5.10;;;3.05;;
28714;SDS011;15886;49.170;14.572;2024-03-23T08:29:16;4.50;;;2.40;;
28714;SDS011;15886;49.170;14.572;2024-03-23T08:31:43;6.32;;;2.72;;
28714;SDS011;15886;49.170;14.572;2024-03-23T08:34:10;3.13;;;2.38;;
28714;SDS011;15886;49.170;14.572;2024-03-23T08:36:37;8.35;;;2.70;;
28714;SDS011;15886;49.170;14.572;2024-03-23T08:39:04;6.35;;;2.70;;
28714;SDS011;15886;49.170;14.572;2024-03-23T08:41:31;3.80;;;2.72;;
28714;SDS011;15886;49.170;14.572;2024-03-23T08:43:59;4.25;;;3.00;;
28714;SDS011;15886;49.170;14.572;2024-03-23T08:46:26;4.32;;;2.75;;
28714;SDS011;15886;49.170;14.572;2024-03-23T08:48:53;4.88;;;2.35;;
28714;SDS011;15886;49.170;14.572;2024-03-23T08:51:20;3.97;;;2.63;;
28714;SDS011;15886;49.170;14.572;2024-03-23T08:53:47;6.13;;;2.63;;
28714;SDS011;15886;49.170;14.572;2024-03-23T08:56:14;5.70;;;2.50;;
28714;SDS011;15886;49.170;14.572;2024-03-23T08:58:41;4.80;;;2.20;;
28714;SDS011;15886;49.170;14.572;2024-03-23T09:01:11;3.88;;;2.00;;
28714;SDS011;15886;49.170;14.572;2024-03-23T09:03:39;8.25;;;2.78;;
28714;SDS011;15886;49.170;14.572;2024-03-23T09:06:08;3.38;;;1.85;;
28714;SDS011;15886;49.170;14.572;2024-03-23T09:08:36;3.28;;;2.13;;
28714;SDS011;15886;49.170;14.572;2024-03-23T09:11:04;4.07;;;2.25;;
28714;SDS011;15886;49.170;14.572;2024-03-23T09:16:28;5.68;;;2.17;;
28714;SDS011;15886;49.170;14.572;2024-03-23T09:18:55;3.72;;;2.20;;
28714;SDS011;15886;49.170;14.572;2024-03-23T09:21:22;3.00;;;1.90;;
28714;SDS011;15886;49.170;14.572;2024-03-23T09:23:49;5.55;;;2.13;;
28714;SDS011;15886;49.170;14.572;2024-03-23T09:26:16;2.70;;;1.77;;
28714;SDS011;15886;49.170;14.572;2024-03-23T09:28:43;4.38;;;2.10;;
28714;SDS011;15886;49.170;14.572;2024-03-23T09:31:10;4.20;;;2.10;;
28714;SDS011;15886;49.170;14.572;2024-03-23T09:33:40;3.22;;;1.92;;
28714;SDS011;15886;49.170;14.572;2024-03-23T09:36:11;3.42;;;2.30;;
28714;SDS011;15886;49.170;14.572;2024-03-23T09:38:38;14.35;;;2.38;;
28714;SDS011;15886;49.170;14.572;2024-03-23T09:41:08;3.08;;;1.80;;
28714;SDS011;15886;49.170;14.572;2024-03-23T09:43:35;3.20;;;2.08;;
28714;SDS011;15886;49.170;14.572;2024-03-23T09:46:02;5.20;;;2.40;;
28714;SDS011;15886;49.170;14.572;2024-03-23T09:48:29;4.18;;;2.00;;
28714;SDS011;15886;49.170;14.572;2024-03-23T09:50:56;4.47;;;2.10;;
28714;SDS011;15886;49.170;14.572;2024-03-23T09:53:24;5.60;;;1.85;;
28714;SDS011;15886;49.170;14.572;2024-03-23T09:55:51;5.82;;;2.00;;
28714;SDS011;15886;49.170;14.572;2024-03-23T09:58:18;3.50;;;2.20;;
28714;SDS011;15886;49.170;14.572;2024-03-23T10:00:45;4.47;;;2.58;;
28714;SDS011;15886;49.170;14.572;2024-03-23T10:03:12;5.82;;;2.67;;
28714;SDS011;15886;49.170;14.572;2024-03-23T10:05:40;8.52;;;3.10;;
28714;SDS011;15886;49.170;14.572;2024-03-23T10:10:40;9.77;;;2.67;;
28714;SDS011;15886;49.170;14.572;2024-03-23T10:13:07;10.77;;;2.55;;
28714;SDS011;15886;49.170;14.572;2024-03-23T10:15:35;6.82;;;2.30;;
28714;SDS011;15886;49.170;14.572;2024-03-23T10:23:34;3.50;;;1.67;;
28714;SDS011;15886;49.170;14.572;2024-03-23T10:26:23;2.45;;;1.80;;
28714;SDS011;15886;49.170;14.572;2024-03-23T10:28:56;3.45;;;1.80;;
28714;SDS011;15886;49.170;14.572;2024-03-23T10:31:34;4.82;;;2.25;;
28714;SDS011;15886;49.170;14.572;2024-03-23T10:34:07;3.50;;;1.60;;
28714;SDS011;15886;49.170;14.572;2024-03-23T10:36:34;2.67;;;1.63;;
28714;SDS011;15886;49.170;14.572;2024-03-23T10:39:04;2.65;;;1.45;;
28714;SDS011;15886;49.170;14.572;2024-03-23T10:41:31;3.83;;;1.67;;
28714;SDS011;15886;49.170;14.572;2024-03-23T10:43:59;2.50;;;1.45;;
28714;SDS011;15886;49.170;14.572;2024-03-23T10:46:27;1.58;;;1.48;;
28714;SDS011;15886;49.170;14.572;2024-03-23T10:48:54;3.38;;;1.75;;
28714;SDS011;15886;49.170;14.572;2024-03-23T10:51:21;1.60;;;1.25;;
28714;SDS011;15886;49.170;14.572;2024-03-23T10:53:48;4.70;;;1.70;;
28714;SDS011;15886;49.170;14.572;2024-03-23T10:56:16;1.90;;;1.42;;
28714;SDS011;15886;49.170;14.572;2024-03-23T10:58:45;1.92;;;1.40;;
28714;SDS011;15886;49.170;14.572;2024-03-23T11:01:13;1.52;;;0.82;;
28714;SDS011;15886;49.170;14.572;2024-03-23T11:03:44;1.70;;;1.23;;
28714;SDS011;15886;49.170;14.572;2024-03-23T11:06:33;1.77;;;1.17;;
28714;SDS011;15886;49.170;14.572;2024-03-23T11:08:58;1.70;;;1.00;;
28714;SDS011;15886;49.170;14.572;2024-03-23T11:11:26;1.83;;;1.25;;
28714;SDS011;15886;49.170;14.572;2024-03-23T11:13:54;1.23;;;1.00;;
28714;SDS011;15886;49.170;14.572;2024-03-23T11:16:22;2.95;;;1.00;;
28714;SDS011;15886;49.170;14.572;2024-03-23T11:18:50;2.28;;;1.20;;
28714;SDS011;15886;49.170;14.572;2024-03-23T11:24:13;1.13;;;0.95;;
28714;SDS011;15886;49.170;14.572;2024-03-23T11:26:41;1.42;;;1.00;;
28714;SDS011;15886;49.170;14.572;2024-03-23T11:29:11;1.40;;;0.90;;
28714;SDS011;15886;49.170;14.572;2024-03-23T11:31:38;1.05;;;0.75;;
28714;SDS011;15886;49.170;14.572;2024-03-23T11:34:06;1.42;;;0.90;;
28714;SDS011;15886;49.170;14.572;2024-03-23T11:36:33;1.08;;;0.98;;
28714;SDS011;15886;49.170;14.572;2024-03-23T11:39:11;2.65;;;1.00;;
28714;SDS011;15886;49.170;14.572;2024-03-23T11:41:48;2.03;;;1.10;;
28714;SDS011;15886;49.170;14.572;2024-03-23T11:44:16;2.95;;;1.48;;
28714;SDS011;15886;49.170;14.572;2024-03-23T11:46:43;2.75;;;1.88;;
28714;SDS011;15886;49.170;14.572;2024-03-23T11:49:26;2.80;;;1.75;;
28714;SDS011;15886;49.170;14.572;2024-03-23T11:51:56;3.65;;;1.70;;
28714;SDS011;15886;49.170;14.572;2024-03-23T11:54:24;1.90;;;1.17;;
28714;SDS011;15886;49.170;14.572;2024-03-23T11:56:58;1.70;;;1.35;;
28714;SDS011;15886;49.170;14.572;2024-03-23T11:59:35;3.75;;;1.75;;
28714;SDS011;15886;49.170;14.572;2024-03-23T12:02:09;3.25;;;2.17;;
28714;SDS011;15886;49.170;14.572;2024-03-23T12:04:39;5.93;;;1.95;;
28714;SDS011;15886;49.170;14.572;2024-03-23T12:07:16;2.35;;;1.48;;
28714;SDS011;15886;49.170;14.572;2024-03-23T12:10:03;1.95;;;1.60;;
28714;SDS011;15886;49.170;14.572;2024-03-23T12:12:32;2.50;;;1.83;;
28714;SDS011;15886;49.170;14.572;2024-03-23T12:15:06;5.20;;;1.85;;
28714;SDS011;15886;49.170;14.572;2024-03-23T12:17:34;4.47;;;2.13;;
28714;SDS011;15886;49.170;14.572;2024-03-23T12:20:01;4.72;;;2.10;;
28714;SDS011;15886;49.170;14.572;2024-03-23T12:22:29;3.33;;;1.60;;
28714;SDS011;15886;49.170;14.572;2024-03-23T12:24:56;4.25;;;2.08;;
28714;SDS011;15886;49.170;14.572;2024-03-23T12:27:23;2.80;;;1.77;;
28714;SDS011;15886;49.170;14.572;2024-03-23T12:29:50;3.25;;;2.25;;
28714;SDS011;15886;49.170;14.572;2024-03-23T12:32:17;3.55;;;2.22;;
28714;SDS011;15886;49.170;14.572;2024-03-23T12:34:44;3.70;;;2.20;;
28714;SDS011;15886;49.170;14.572;2024-03-23T12:37:13;4.93;;;2.25;;
28714;SDS011;15886;49.170;14.572;2024-03-23T12:39:40;3.28;;;1.90;;
28714;SDS011;15886;49.170;14.572;2024-03-23T12:42:08;3.72;;;2.10;;
28714;SDS011;15886;49.170;14.572;2024-03-23T12:44:35;4.70;;;1.98;;
28714;SDS011;15886;49.170;14.572;2024-03-23T12:47:04;5.22;;;2.47;;
28714;SDS011;15886;49.170;14.572;2024-03-23T12:49:31;2.30;;;1.90;;
28714;SDS011;15886;49.170;14.572;2024-03-23T12:51:58;3.65;;;2.03;;
28714;SDS011;15886;49.170;14.572;2024-03-23T12:54:25;2.42;;;1.77;;
28714;SDS011;15886;49.170;14.572;2024-03-23T12:56:52;2.60;;;1.50;;
28714;SDS011;15886;49.170;14.572;2024-03-23T12:59:19;3.33;;;2.00;;
28714;SDS011;15886;49.170;14.572;2024-03-23T13:01:46;5.32;;;1.73;;
28714;SDS011;15886;49.170;14.572;2024-03-23T13:04:13;2.92;;;1.60;;
28714;SDS011;15886;49.170;14.572;2024-03-23T13:06:41;1.73;;;1.15;;
28714;SDS011;15886;49.170;14.572;2024-03-23T13:09:08;1.75;;;1.23;;
28714;SDS011;15886;49.170;14.572;2024-03-23T13:11:35;2.10;;;1.17;;
28714;SDS011;15886;49.170;14.572;2024-03-23T13:14:02;1.95;;;1.20;;
28714;SDS011;15886;49.170;14.572;2024-03-23T13:16:30;1.80;;;1.00;;
28714;SDS011;15886;49.170;14.572;2024-03-23T13:18:57;13.32;;;1.60;;
28714;SDS011;15886;49.170;14.572;2024-03-23T13:21:24;1.40;;;1.00;;
28714;SDS011;15886;49.170;14.572;2024-03-23T13:23:51;1.73;;;1.30;;
28714;SDS011;15886;49.170;14.572;2024-03-23T13:26:19;1.38;;;1.27;;
28714;SDS011;15886;49.170;14.572;2024-03-23T13:28:46;7.82;;;1.52;;
28714;SDS011;15886;49.170;14.572;2024-03-23T13:31:13;3.15;;;1.45;;
28714;SDS011;15886;49.170;14.572;2024-03-23T13:33:40;2.03;;;1.08;;
28714;SDS011;15886;49.170;14.572;2024-03-23T13:36:10;2.17;;;1.02;;
28714;SDS011;15886;49.170;14.572;2024-03-23T13:38:37;1.75;;;1.05;;
28714;SDS011;15886;49.170;14.572;2024-03-23T13:41:04;2.50;;;1.30;;
28714;SDS011;15886;49.170;14.572;2024-03-23T13:43:32;2.03;;;1.13;;
28714;SDS011;15886;49.170;14.572;2024-03-23T13:45:59;2.08;;;1.20;;
28714;SDS011;15886;49.170;14.572;2024-03-23T13:48:27;0.88;;;0.85;;
28714;SDS011;15886;49.170;14.572;2024-03-23T13:51:03;0.82;;;0.68;;
28714;SDS011;15886;49.170;14.572;2024-03-23T13:56:01;2.08;;;1.20;;
28714;SDS011;15886;49.170;14.572;2024-03-23T13:58:29;3.13;;;1.10;;
28714;SDS011;15886;49.170;14.572;2024-03-23T14:00:59;1.58;;;0.90;;
28714;SDS011;15886;49.170;14.572;2024-03-23T14:03:27;2.20;;;0.88;;
28714;SDS011;15886;49.170;14.572;2024-03-23T14:05:58;1.92;;;1.10;;
28714;SDS011;15886;49.170;14.572;2024-03-23T14:08:27;0.95;;;0.73;;
28714;SDS011;15886;49.170;14.572;2024-03-23T14:10:54;3.80;;;0.70;;
28714;SDS011;15886;49.170;14.572;2024-03-23T14:13:23;0.85;;;0.85;;
28714;SDS011;15886;49.170;14.572;2024-03-23T14:15:53;2.45;;;0.90;;
28714;SDS011;15886;49.170;14.572;2024-03-23T14:18:20;3.75;;;0.90;;
28714;SDS011;15886;49.170;14.572;2024-03-23T14:20:56;2.17;;;1.00;;
28714;SDS011;15886;49.170;14.572;2024-03-23T14:23:26;0.93;;;0.68;;
28714;SDS011;15886;49.170;14.572;2024-03-23T14:25:56;0.82;;;0.50;;
28714;SDS011;15886;49.170;14.572;2024-03-23T14:28:23;0.93;;;0.60;;
28714;SDS011;15886;49.170;14.572;2024-03-23T14:30:52;1.05;;;0.70;;
28714;SDS011;15886;49.170;14.572;2024-03-23T14:33:21;1.25;;;0.70;;
28714;SDS011;15886;49.170;14.572;2024-03-23T14:35:51;1.33;;;0.80;;
28714;SDS011;15886;49.170;14.572;2024-03-23T14:38:19;2.85;;;0.63;;
28714;SDS011;15886;49.170;14.572;2024-03-23T14:40:47;1.42;;;0.95;;
28714;SDS011;15886;49.170;14.572;2024-03-23T14:43:15;3.00;;;0.88;;
28714;SDS011;15886;49.170;14.572;2024-03-23T14:45:49;2.58;;;0.98;;
28714;SDS011;15886;49.170;14.572;2024-03-23T14:48:29;2.47;;;0.90;;
28714;SDS011;15886;49.170;14.572;2024-03-23T14:50:56;2.75;;;1.05;;
28714;SDS011;15886;49.170;14.572;2024-03-23T14:53:23;1.55;;;0.93;;
28714;SDS011;15886;49.170;14.572;2024-03-23T14:55:50;2.08;;;1.38;;
28714;SDS011;15886;49.170;14.572;2024-03-23T14:58:17;2.00;;;1.40;;
28714;SDS011;15886;49.170;14.572;2024-03-23T15:00:44;2.10;;;1.10;;
28714;SDS011;15886;49.170;14.572;2024-03-23T15:03:11;1.30;;;1.20;;
28714;SDS011;15886;49.170;14.572;2024-03-23T15:05:38;1.38;;;0.93;;
28714;SDS011;15886;49.170;14.572;2024-03-23T15:08:06;1.23;;;1.00;;
28714;SDS011;15886;49.170;14.572;2024-03-23T15:10:33;3.10;;;1.10;;
28714;SDS011;15886;49.170;14.572;2024-03-23T15:13:01;2.78;;;1.13;;
28714;SDS011;15886;49.170;14.572;2024-03-23T15:15:29;5.40;;;1.35;;
28714;SDS011;15886;49.170;14.572;2024-03-23T15:17:56;1.83;;;1.05;;
28714;SDS011;15886;49.170;14.572;2024-03-23T15:20:23;2.20;;;1.20;;
28714;SDS011;15886;49.170;14.572;2024-03-23T15:22:50;2.47;;;1.30;;
28714;SDS011;15886;49.170;14.572;2024-03-23T15:25:17;2.65;;;1.55;;
28714;SDS011;15886;49.170;14.572;2024-03-23T15:27:44;3.00;;;1.15;;
28714;SDS011;15886;49.170;14.572;2024-03-23T15:30:11;2.38;;;1.20;;
28714;SDS011;15886;49.170;14.572;2024-03-23T15:32:39;2.55;;;1.20;;
28714;SDS011;15886;49.170;14.572;2024-03-23T15:35:06;2.47;;;1.23;;
28714;SDS011;15886;49.170;14.572;2024-03-23T15:37:33;3.55;;;1.48;;
28714;SDS011;15886;49.170;14.572;2024-03-23T15:40:00;1.15;;;1.05;;